createdAt,value
2022-12-24T00:02:13.253Z,108.40
2022-12-24T00:07:16.021Z,121.60
2022-12-24T00:12:18.734Z,131.50
2022-12-24T00:17:21.688Z,111.90
2022-12-24T00:22:24.717Z,130.70
2022-12-24T00:27:27.465Z,98.20
2022-12-24T00:32:30.252Z,49.30
2022-12-24T00:37:32.971Z,69.00
2022-12-24T00:42:35.703Z,44.30
2022-12-24T00:47:38.506Z,125.60
2022-12-24T00:52:41.310Z,78.70
2022-12-24T00:57:44.015Z,80.00
2022-12-24T01:02:47.108Z,58.60
2022-12-24T01:07:50.109Z,57.70
2022-12-24T01:12:52.848Z,65.70
2022-12-24T01:17:55.676Z,72.20
2022-12-24T01:22:58.493Z,70.50
2022-12-24T01:28:01.176Z,65.70
2022-12-24T01:33:03.926Z,61.20
2022-12-24T01:38:06.654Z,75.90
2022-12-24T01:43:23.934Z,59.30
2022-12-24T01:48:44.232Z,61.00
2022-12-24T01:53:51.557Z,69.10
2022-12-24T01:59:00.371Z,50.00
2022-12-24T02:04:12.268Z,55.50
2022-12-24T02:09:15.457Z,62.60
2022-12-24T02:19:58.785Z,81.10
2022-12-24T02:25:04.329Z,98.40
2022-12-24T02:30:15.187Z,84.20
2022-12-24T02:35:24.177Z,80.20
2022-12-24T02:40:38.079Z,89.10
2022-12-24T02:45:45.988Z,80.20
2022-12-24T02:51:06.931Z,75.60
2022-12-24T02:56:47.085Z,63.00
2022-12-24T03:02:28.772Z,54.50
2022-12-24T03:07:59.567Z,60.60
2022-12-24T03:13:10.303Z,70.50
2022-12-24T03:18:17.385Z,50.70
2022-12-24T03:23:20.395Z,63.80
2022-12-24T03:28:27.220Z,54.40
2022-12-24T03:33:30.320Z,65.30
2022-12-24T03:38:33.844Z,74.90
2022-12-24T03:43:36.607Z,66.40
2022-12-24T03:48:39.406Z,60.20
2022-12-24T03:53:42.127Z,85.60
2022-12-24T03:58:44.958Z,60.10
2022-12-24T04:03:47.711Z,66.20
2022-12-24T04:08:50.421Z,52.20
2022-12-24T04:13:53.124Z,57.80
2022-12-24T04:18:55.913Z,49.80
2022-12-24T04:23:58.596Z,51.70
2022-12-24T04:29:01.283Z,63.50
2022-12-24T04:34:04.024Z,95.00
2022-12-24T04:39:06.736Z,89.80
2022-12-24T04:44:10.615Z,114.90
2022-12-24T04:49:13.335Z,73.50
2022-12-24T04:54:16.161Z,108.70
2022-12-24T04:59:18.867Z,69.60
2022-12-24T05:04:21.601Z,71.00
2022-12-24T05:09:24.356Z,57.30
2022-12-24T05:14:27.066Z,112.50
2022-12-24T05:19:29.831Z,91.20
2022-12-24T05:24:51.045Z,77.50
2022-12-24T05:29:53.783Z,86.50
2022-12-24T05:34:56.544Z,102.50
2022-12-24T05:39:59.339Z,58.90
2022-12-24T05:45:02.127Z,45.30
2022-12-24T05:50:05.635Z,42.30
2022-12-24T05:55:09.320Z,74.70
2022-12-24T06:00:12.306Z,64.70
2022-12-24T06:05:15.184Z,50.10
2022-12-24T06:10:18.082Z,42.60
2022-12-24T06:15:24.069Z,63.20
2022-12-24T06:20:27.105Z,40.60
2022-12-24T06:25:29.840Z,34.00
2022-12-24T06:30:32.663Z,44.20
2022-12-24T06:35:35.390Z,47.50
2022-12-24T06:40:39.648Z,40.20
2022-12-24T06:45:47.020Z,41.90
2022-12-24T06:50:49.703Z,22.20
2022-12-24T06:55:52.350Z,16.40
2022-12-24T07:00:55.080Z,38.70
2022-12-24T07:05:58.481Z,51.40
2022-12-24T07:11:01.231Z,36.40
2022-12-24T07:16:05.325Z,41.10
2022-12-24T07:21:08.227Z,43.60
2022-12-24T07:26:11.312Z,55.20
2022-12-24T07:31:14.532Z,45.80
2022-12-24T07:36:22.172Z,39.90
2022-12-24T07:41:25.198Z,36.60
2022-12-24T07:46:27.963Z,44.90
2022-12-24T07:51:30.800Z,45.70
2022-12-24T07:56:33.655Z,102.60
2022-12-24T08:01:36.445Z,74.80
2022-12-24T08:06:39.423Z,80.20
2022-12-24T08:11:47.953Z,54.10
2022-12-24T08:16:54.391Z,72.10
2022-12-24T08:21:57.106Z,111.20
2022-12-24T08:26:59.894Z,83.60
2022-12-24T08:32:02.705Z,118.40
2022-12-24T08:37:05.658Z,100.80
2022-12-24T08:42:08.470Z,78.80
2022-12-24T08:47:11.370Z,102.80
2022-12-24T08:52:14.119Z,82.30
2022-12-24T08:57:16.830Z,66.20
2022-12-24T09:02:20.440Z,72.60
2022-12-24T09:07:23.439Z,75.70
2022-12-24T09:12:26.170Z,59.30
2022-12-24T09:17:28.891Z,37.80
2022-12-24T09:22:31.593Z,39.00
2022-12-24T09:27:34.788Z,44.70
2022-12-24T09:37:40.212Z,94.50
2022-12-24T09:42:52.053Z,143.60
2022-12-24T09:48:04.780Z,186.40
2022-12-24T09:53:20.336Z,74.40
2022-12-24T09:58:29.555Z,26.20
2022-12-24T10:03:32.776Z,17.30
2022-12-24T10:14:03.857Z,17.20
2022-12-24T10:19:33.354Z,10.90
2022-12-24T10:24:50.930Z,17.50
2022-12-24T10:30:02.310Z,12.50
2022-12-24T10:35:14.393Z,28.10
2022-12-24T10:40:23.419Z,34.00
2022-12-24T10:45:36.954Z,20.50
2022-12-24T10:50:47.153Z,30.00
2022-12-24T10:55:49.897Z,23.90
2022-12-24T11:00:54.354Z,16.20
2022-12-24T11:06:11.460Z,35.30
2022-12-24T11:11:20.381Z,21.10
2022-12-24T11:16:29.772Z,21.30
2022-12-24T11:21:38.668Z,21.40
2022-12-24T11:26:44.058Z,35.90
2022-12-24T11:31:48.668Z,48.70
2022-12-24T11:36:53.252Z,23.40
2022-12-24T11:41:56.072Z,26.70
2022-12-24T11:46:59.179Z,31.30
2022-12-24T11:52:10.762Z,22.30
2022-12-24T11:57:17.174Z,32.60
2022-12-24T12:02:36.666Z,33.50
2022-12-24T12:07:40.133Z,34.50
2022-12-24T12:17:52.030Z,23.90
2022-12-24T12:23:14.061Z,24.70
2022-12-24T12:28:28.903Z,23.70
2022-12-24T12:33:41.633Z,39.40
2022-12-24T12:38:44.618Z,40.10
2022-12-24T12:44:06.482Z,32.30
2022-12-24T12:49:27.096Z,36.00
2022-12-24T12:54:50.290Z,24.50
2022-12-24T13:00:06.118Z,30.30
2022-12-24T13:05:34.785Z,28.80
2022-12-24T13:10:52.094Z,27.50
2022-12-24T13:16:13.019Z,37.40
2022-12-24T13:21:20.483Z,31.70
2022-12-24T13:26:23.250Z,43.60
2022-12-24T13:31:28.172Z,37.00
2022-12-24T13:37:09.873Z,30.30
2022-12-24T13:42:51.254Z,35.80
2022-12-24T13:47:54.403Z,30.90
2022-12-24T13:52:57.194Z,28.70
2022-12-24T13:58:04.437Z,24.00
2022-12-24T14:03:13.443Z,32.90
2022-12-24T14:08:22.876Z,35.00
2022-12-24T14:13:40.789Z,26.90
2022-12-24T14:18:58.356Z,31.20
2022-12-24T14:24:06.386Z,28.70
2022-12-24T14:29:26.638Z,33.00
2022-12-24T14:34:29.551Z,32.80
2022-12-24T14:39:35.893Z,24.60
2022-12-24T14:44:53.328Z,23.20
2022-12-24T14:50:21.813Z,61.60
2022-12-24T14:55:36.014Z,54.40
2022-12-24T15:00:39.738Z,39.50
2022-12-24T15:05:43.418Z,32.30
2022-12-24T15:10:54.618Z,27.60
2022-12-24T15:15:57.652Z,22.30
2022-12-24T15:21:04.501Z,35.30
2022-12-24T15:26:28.807Z,31.30
2022-12-24T15:31:32.184Z,28.50
2022-12-24T15:36:37.177Z,23.00
2022-12-24T15:42:01.584Z,27.20
2022-12-24T15:47:07.370Z,26.00
2022-12-24T15:52:14.596Z,23.30
2022-12-24T15:57:31.722Z,34.30
2022-12-24T16:02:45.718Z,48.50
2022-12-24T16:08:13.553Z,38.60
2022-12-24T16:13:30.653Z,41.10
2022-12-24T16:18:53.846Z,26.80
2022-12-24T16:24:06.322Z,33.10
2022-12-24T16:29:11.669Z,41.20
2022-12-24T16:34:15.726Z,50.80
2022-12-24T16:39:24.636Z,39.00
2022-12-24T16:44:27.491Z,31.00
2022-12-24T16:49:30.901Z,22.00
2022-12-24T16:54:33.655Z,32.10
2022-12-24T16:59:37.227Z,23.90
2022-12-24T17:04:39.967Z,20.80
2022-12-24T17:09:43.451Z,21.50
2022-12-24T17:14:46.158Z,27.40
2022-12-24T17:19:48.870Z,23.90
2022-12-24T17:24:51.700Z,22.50
2022-12-24T17:29:55.645Z,19.10
2022-12-24T17:35:00.214Z,27.50
2022-12-24T17:40:03.476Z,25.20
2022-12-24T17:45:06.724Z,17.80
2022-12-24T17:55:12.277Z,19.10
2022-12-24T18:00:16.037Z,16.00
2022-12-24T18:05:18.754Z,19.80
2022-12-24T18:10:21.536Z,22.60
2022-12-24T18:15:24.273Z,29.40
2022-12-24T18:20:26.995Z,24.60
2022-12-24T18:25:29.718Z,18.70
2022-12-24T18:30:32.474Z,12.40
2022-12-24T18:35:35.195Z,28.80
2022-12-24T18:40:37.940Z,25.20
2022-12-24T18:45:41.937Z,27.00
2022-12-24T18:50:55.379Z,37.40
2022-12-24T19:01:17.954Z,22.30
2022-12-24T19:06:21.707Z,23.70
2022-12-24T19:11:24.493Z,14.00
2022-12-24T19:16:28.951Z,12.90
2022-12-24T19:21:32.451Z,13.70
2022-12-24T19:26:35.173Z,15.80
2022-12-24T19:31:38.065Z,24.70
2022-12-24T19:36:40.836Z,19.50
2022-12-24T19:41:43.527Z,26.10
2022-12-24T19:46:46.474Z,23.10
2022-12-24T19:51:49.603Z,24.60
2022-12-24T20:01:56.358Z,20.00
2022-12-24T20:07:00.798Z,19.00
2022-12-24T20:12:03.909Z,20.10
2022-12-24T20:17:06.762Z,26.20
2022-12-24T20:22:09.533Z,18.60
2022-12-24T20:27:12.598Z,16.70
2022-12-24T20:32:15.361Z,12.40
2022-12-24T20:37:18.348Z,12.10
2022-12-24T20:42:21.130Z,11.00
2022-12-24T20:47:24.067Z,20.40
2022-12-24T20:52:26.916Z,13.60
2022-12-24T20:57:35.907Z,12.30
2022-12-24T21:02:39.504Z,17.00
2022-12-24T21:07:43.676Z,15.30
2022-12-24T21:12:49.325Z,14.00
2022-12-24T21:17:52.744Z,14.90
2022-12-24T21:23:01.319Z,14.00
2022-12-24T21:28:04.599Z,17.00
2022-12-24T21:33:07.479Z,32.70
2022-12-24T21:38:10.295Z,19.50
2022-12-24T21:43:13.193Z,24.20
2022-12-24T21:48:34.791Z,24.40
2022-12-24T21:53:56.628Z,18.20
2022-12-24T21:58:59.335Z,23.80
2022-12-24T22:04:02.074Z,31.60
2022-12-24T22:09:24.231Z,28.10
2022-12-24T22:14:27.564Z,28.10
2022-12-24T22:24:33.087Z,47.00
2022-12-24T22:29:35.830Z,41.00
2022-12-24T22:34:38.590Z,38.10
2022-12-24T22:39:41.531Z,36.20
2022-12-24T22:44:44.313Z,44.40
2022-12-24T22:49:48.083Z,29.90
2022-12-24T22:54:50.800Z,31.00
2022-12-24T22:59:53.507Z,42.30
2022-12-24T23:04:56.399Z,22.30
2022-12-24T23:09:59.830Z,18.30
2022-12-24T23:15:02.549Z,17.40
2022-12-24T23:20:06.620Z,38.00
2022-12-24T23:25:09.683Z,24.60
2022-12-24T23:30:12.660Z,26.30
2022-12-24T23:35:15.401Z,27.30
2022-12-24T23:40:18.319Z,27.10
2022-12-24T23:45:21.034Z,24.60
2022-12-24T23:50:23.735Z,25.20
2022-12-24T23:55:26.917Z,32.30
